This is the latest recevied weather packets stored in our database for station/object F5SAW-10. If no packets are shown the sender has not sent any weather packets the latest 10 day(s).
| Time | Temp. | Humidity | Pressure | Rain* | Wind** | Luminosity | Snow |
|---|---|---|---|---|---|---|---|
| 1778404589 | 26.11° C | 40% | 974.9 hPa | - | - | - | - |
| 1778403689 | 26.11° C | 40% | 974.9 hPa | - | - | - | - |
| 1778402788 | 26.11° C | 40% | 974.8 hPa | - | - | - | - |
| 1778401888 | 26.11° C | 40% | 974.9 hPa | - | - | - | - |
| 1778400988 | 26.11° C | 40% | 974.9 hPa | - | - | - | - |
| 1778400088 | 25.56° C | 39% | 974.7 hPa | - | - | - | - |
| 1778399188 | 25.56° C | 39% | 974.7 hPa | - | - | - | - |
| 1778398287 | 25.56° C | 40% | 974.6 hPa | - | - | - | - |
| 1778397387 | 25.56° C | 39% | 974.5 hPa | - | - | - | - |
| 1778396487 | 25.56° C | 39% | 974.4 hPa | - | - | - | - |
| 1778395587 | 25.56° C | 39% | 974.2 hPa | - | - | - | - |
| 1778394686 | 25° C | 41% | 974.2 hPa | - | - | - | - |
| 1778393786 | 23.89° C | 45% | 974.2 hPa | - | - | - | - |
| 1778392886 | 18.33° C | 56% | 974.3 hPa | - | - | - | - |
| 1778352390 | 26.67° C | 38% | 973.8 hPa | - | - | - | - |
| 1778351490 | 26.67° C | 38% | 973.8 hPa | - | - | - | - |
| 1778350590 | 26.67° C | 38% | 973.4 hPa | - | - | - | - |
| 1778349690 | 26.67° C | 38% | 973 hPa | - | - | - | - |
| 1778348790 | 26.67° C | 38% | 972.6 hPa | - | - | - | - |
| 1778347890 | 26.67° C | 37% | 972.7 hPa | - | - | - | - |
| 1778346990 | 26.67° C | 37% | 972.9 hPa | - | - | - | - |
| 1778346090 | 26.67° C | 38% | 973.3 hPa | - | - | - | - |
| 1778345189 | 26.67° C | 38% | 973.2 hPa | - | - | - | - |
| 1778344289 | 26.67° C | 38% | 973.2 hPa | - | - | - | - |
| 1778343389 | 26.67° C | 38% | 973.3 hPa | - | - | - | - |
* Rain since midnight (hover to see other rain measurements)
** Current wind speed in m/s (hover to see current wind gust speed)